Time;durP1;ratioP1;P1;durP2;ratioP2;P2;SDS_P1;SDS_P2;PMS_P1;PMS_P2;Temp;Humidity;BMP_temperature;BMP_pressure;BME280_temperature;BME280_humidity;BME280_pressure;Samples;Min_cycle;Max_cycle;Signal;HPM_P1;HPM_P2
2021/03/11 00:00:07;;;;;;;300.50;179.48;;;;;;;6.49;66.92;102555.47;5012648;28;20508;-84
2021/03/11 00:02:34;;;;;;;295.05;179.48;;;;;;;5.97;66.46;102461.41;5011863;28;20045;-86
2021/03/11 00:05:02;;;;;;;294.10;186.10;;;;;;;5.65;66.13;102376.13;5011194;28;20513;-84
2021/03/11 00:07:29;;;;;;;306.60;182.73;;;;;;;5.40;66.19;102347.88;5012033;28;20034;-84
2021/03/11 00:09:56;;;;;;;285.00;172.82;;;;;;;6.02;65.61;102424.13;5009340;28;20026;-85
2021/03/11 00:12:23;;;;;;;282.15;172.63;;;;;;;6.63;64.66;102491.41;4993674;28;20030;-85
2021/03/11 00:14:50;;;;;;;278.60;168.32;;;;;;;6.39;64.24;102421.72;4999185;28;20018;-83
2021/03/11 00:17:17;;;;;;;278.67;168.77;;;;;;;6.81;64.48;102452.59;5012466;28;20034;-85
2021/03/11 00:19:44;;;;;;;275.80;167.50;;;;;;;6.27;63.40;102374.50;5010800;28;20058;-85
2021/03/11 00:22:12;;;;;;;274.40;167.73;;;;;;;6.41;61.79;102392.13;5011234;28;20028;-85
2021/03/11 00:24:39;;;;;;;266.50;159.63;;;;;;;7.44;62.00;102542.50;5011785;28;20022;-85
2021/03/11 00:27:06;;;;;;;254.27;154.40;;;;;;;6.74;61.04;102414.94;5011601;28;20403;-85
2021/03/11 00:29:33;;;;;;;257.30;161.93;;;;;;;7.14;60.80;102484.53;5010346;28;20022;-86
2021/03/11 00:32:00;;;;;;;261.70;160.27;;;;;;;6.51;60.62;102358.88;5012811;28;21051;-86
2021/03/11 00:34:27;;;;;;;256.50;159.35;;;;;;;7.52;60.37;102495.56;5012118;28;20062;-86
2021/03/11 00:36:54;;;;;;;264.65;162.13;;;;;;;7.04;61.15;102461.88;5009378;28;20518;-84
2021/03/11 00:39:21;;;;;;;263.40;164.35;;;;;;;6.48;61.43;102341.88;5011228;28;20053;-84
2021/03/11 00:41:48;;;;;;;264.08;164.57;;;;;;;6.46;60.46;102330.19;5006916;28;20495;-85
2021/03/11 00:44:15;;;;;;;270.15;163.18;;;;;;;7.79;60.54;102545.63;5003072;28;20026;-85
2021/03/11 00:46:42;;;;;;;270.67;171.95;;;;;;;7.89;61.08;102547.25;5007665;28;20037;-86
2021/03/11 00:49:09;;;;;;;266.75;165.75;;;;;;;6.80;61.01;102339.88;5008686;28;20035;-84
2021/03/11 00:51:36;;;;;;;281.48;176.50;;;;;;;7.97;61.45;102565.63;5008233;28;20030;-86
2021/03/11 00:54:03;;;;;;;300.00;179.45;;;;;;;8.17;61.32;102560.41;5004164;28;20049;-85
2021/03/11 00:56:30;;;;;;;300.38;179.48;;;;;;;7.03;62.07;102377.53;5010944;28;20034;-85
2021/03/11 00:58:57;;;;;;;290.60;176.23;;;;;;;7.42;61.44;102375.63;5010778;28;20060;-85
2021/03/11 01:01:24;;;;;;;278.40;176.48;;;;;;;7.40;61.07;102359.28;5011858;28;20109;-85
2021/03/11 01:03:51;;;;;;;301.75;178.73;;;;;;;8.42;62.08;102574.78;5008031;28;20022;-85
2021/03/11 01:06:18;;;;;;;275.50;176.07;;;;;;;7.78;63.31;102488.75;5011614;28;20399;-86
2021/03/11 01:08:45;;;;;;;276.98;174.75;;;;;;;7.83;62.33;102462.53;5011302;28;20116;-84
2021/03/11 01:11:12;;;;;;;284.15;182.75;;;;;;;7.61;62.49;102443.13;5010439;28;20487;-85
2021/03/11 01:13:39;;;;;;;278.85;166.88;;;;;;;7.70;62.14;102432.84;5010710;28;20064;-84
2021/03/11 01:16:06;;;;;;;278.98;165.40;;;;;;;7.83;62.66;102446.00;5007266;28;20117;-85
2021/03/11 01:18:33;;;;;;;262.70;165.45;;;;;;;7.68;61.88;102399.97;5010416;28;20041;-84
2021/03/11 01:21:00;;;;;;;271.30;168.77;;;;;;;8.11;61.50;102475.63;5010364;28;20034;-85
2021/03/11 01:23:27;;;;;;;250.90;153.40;;;;;;;6.94;60.55;102308.78;5006866;28;20117;-85
2021/03/11 01:25:54;;;;;;;251.38;151.60;;;;;;;7.39;61.25;102327.25;5007514;28;20084;-85
2021/03/11 01:28:21;;;;;;;253.18;157.52;;;;;;;7.43;59.58;102303.75;5007098;28;20053;-85
2021/03/11 01:30:48;;;;;;;260.65;154.68;;;;;;;7.93;58.41;102350.03;5007439;28;20068;-85
2021/03/11 01:33:15;;;;;;;233.13;144.10;;;;;;;7.96;58.12;102326.72;5010633;28;20069;-86
2021/03/11 01:35:42;;;;;;;230.48;142.63;;;;;;;8.14;58.17;102337.34;5026701;28;20029;-84
2021/03/11 01:38:09;;;;;;;225.23;141.07;;;;;;;8.65;57.86;102401.78;5010460;28;20030;-85
2021/03/11 01:40:36;;;;;;;236.55;145.32;;;;;;;9.11;57.05;102467.72;5010035;28;20030;-85
2021/03/11 01:43:04;;;;;;;216.82;133.23;;;;;;;8.62;55.41;102365.25;5010693;28;20029;-84
2021/03/11 01:45:31;;;;;;;231.95;147.63;;;;;;;9.24;55.90;102460.59;5011622;28;20025;-85
2021/03/11 01:47:58;;;;;;;227.15;140.95;;;;;;;9.41;55.97;102475.84;5011648;28;20037;-84
2021/03/11 01:50:25;;;;;;;222.32;139.57;;;;;;;8.79;56.14;102358.63;5013016;28;20018;-85
2021/03/11 01:52:52;;;;;;;225.77;139.93;;;;;;;9.59;54.53;102444.91;5015591;28;20113;-85
2021/03/11 01:55:20;;;;;;;219.50;133.32;;;;;;;9.88;53.98;102485.53;5012961;28;20033;-83
2021/03/11 01:57:47;;;;;;;207.07;131.48;;;;;;;9.83;52.86;102447.41;5012759;28;20033;-86
2021/03/11 02:00:15;;;;;;;212.27;130.38;;;;;;;9.53;52.58;102381.28;5045160;28;20065;-84
2021/03/11 02:02:46;;;;;;;184.90;111.53;;;;;;;8.96;48.75;102268.00;5017941;28;20030;-85
2021/03/11 02:05:16;;;;;;;184.00;109.65;;;;;;;10.00;47.25;102468.16;5013003;28;20041;-84
2021/03/11 02:07:44;;;;;;;194.50;113.93;;;;;;;8.58;47.52;102200.19;5012113;28;20163;-84
2021/03/11 02:10:14;;;;;;;183.65;108.95;;;;;;;8.25;48.18;102107.78;5015788;28;20044;-84
2021/03/11 02:12:44;;;;;;;;;;;;;;;10.43;44.31;102438.59;5014342;28;20411;-84
2021/03/11 02:15:27;;;;;;;172.98;110.70;;;;;;;10.51;46.13;102441.16;5013953;28;19973;-87
2021/03/11 02:18:19;;;;;;;176.52;109.78;;;;;;;10.54;46.07;102443.50;5013797;28;20475;-85
2021/03/11 02:21:23;;;;;;;172.25;108.55;;;;;;;10.60;46.19;102432.66;5014911;28;20057;-85
2021/03/11 02:24:20;;;;;;;182.85;106.57;;;;;;;10.53;45.59;102439.03;5001513;28;20064;-84
2021/03/11 02:27:31;;;;;;;164.98;100.80;;;;;;;10.67;44.10;102425.22;5015679;28;20480;-86
2021/03/11 02:29:58;;;;;;;170.70;100.50;;;;;;;9.89;43.23;102254.84;5012440;28;20034;-84
2021/03/11 02:32:27;;;;;;;161.50;98.18;;;;;;;10.97;42.77;102419.31;5014780;28;20065;-85
2021/03/11 02:34:57;;;;;;;153.30;97.55;;;;;;;9.62;43.42;102178.19;5017353;28;20161;-85
2021/03/11 02:37:33;;;;;;;171.10;103.78;;;;;;;10.66;43.32;102327.41;5013211;28;20026;-84
2021/03/11 02:40:10;;;;;;;161.18;98.65;;;;;;;10.50;43.01;102289.06;5013507;28;20037;-84
2021/03/11 02:42:40;;;;;;;169.07;102.72;;;;;;;10.99;42.99;102322.94;5013767;28;20029;-86
2021/03/11 02:45:09;;;;;;;174.43;103.78;;;;;;;9.58;43.45;102082.91;5014169;28;20113;-85
2021/03/11 02:47:38;;;;;;;156.18;101.03;;;;;;;10.98;43.80;102301.84;5009505;28;20087;-85
2021/03/11 02:50:07;;;;;;;159.00;97.47;;;;;;;11.53;42.52;102388.56;5013239;28;20057;-85
2021/03/11 02:52:36;;;;;;;161.95;101.25;;;;;;;10.63;43.19;102315.94;5010679;28;20057;-85
2021/03/11 02:55:04;;;;;;;168.40;101.28;;;;;;;10.09;42.99;102216.16;5009778;28;20056;-85
2021/03/11 02:57:33;;;;;;;158.45;96.97;;;;;;;11.12;42.71;102362.81;5008824;28;20499;-85
2021/03/11 03:00:05;;;;;;;148.45;93.78;;;;;;;10.54;42.27;102274.56;5011691;28;20033;-85
2021/03/11 03:02:34;;;;;;;152.00;94.68;;;;;;;10.15;42.80;102276.19;5013352;28;20069;-84
2021/03/11 03:05:01;;;;;;;146.18;90.07;;;;;;;9.31;41.44;102190.63;5014776;28;20093;-85
2021/03/11 03:07:29;;;;;;;145.23;91.22;;;;;;;10.22;41.79;102299.22;5013600;28;20054;-85
2021/03/11 03:09:58;;;;;;;141.45;86.97;;;;;;;10.06;41.95;102188.91;5008957;28;20031;-85
2021/03/11 03:12:26;;;;;;;143.45;83.70;;;;;;;10.06;39.45;102177.84;4997848;28;20116;-85
2021/03/11 03:14:54;;;;;;;133.52;83.05;;;;;;;11.02;37.70;102349.38;5012510;28;20017;-85
2021/03/11 03:17:24;;;;;;;121.70;76.63;;;;;;;10.47;36.45;102284.78;5029179;28;20029;-86
2021/03/11 03:19:51;;;;;;;136.43;80.40;;;;;;;10.76;37.90;102337.25;5027271;28;20088;-84
2021/03/11 03:22:19;;;;;;;131.60;79.85;;;;;;;9.48;37.51;102135.84;5011766;28;20034;-87
2021/03/11 03:24:47;;;;;;;135.50;83.78;;;;;;;10.60;38.44;102259.03;5012790;28;20049;-85
2021/03/11 03:27:15;;;;;;;151.48;90.88;;;;;;;10.07;39.37;102205.31;5008664;28;20030;-87
2021/03/11 03:29:45;;;;;;;143.65;89.45;;;;;;;10.94;39.79;102311.66;5009075;28;20034;-85
2021/03/11 03:32:12;;;;;;;163.93;95.22;;;;;;;10.16;41.57;102228.09;5011606;28;20045;-88
2021/03/11 03:34:39;;;;;;;163.35;99.95;;;;;;;10.13;42.15;102239.59;5013263;28;20445;-84
2021/03/11 03:37:06;;;;;;;171.65;104.10;;;;;;;9.57;42.48;102095.88;5011671;28;20052;-85
2021/03/11 03:39:35;;;;;;;145.20;91.13;;;;;;;10.67;41.07;102200.88;5008242;28;20022;-84
2021/03/11 03:42:06;;;;;;;165.32;98.80;;;;;;;11.27;41.00;102258.09;5014125;28;20112;-86
2021/03/11 03:44:36;;;;;;;155.60;94.63;;;;;;;10.94;40.61;102178.66;5011168;28;20076;-85
2021/03/11 03:47:02;;;;;;;;;;;;;;;11.52;39.89;102262.91;5011889;28;20030;-86
2021/03/11 03:49:31;;;;;;;167.23;97.57;;;;;;;10.50;40.05;102090.53;5012110;28;20362;-87
2021/03/11 03:52:01;;;;;;;167.68;101.72;;;;;;;10.94;40.95;102184.19;5011665;28;20026;-86
2021/03/11 03:54:31;;;;;;;180.40;105.03;;;;;;;11.45;40.79;102251.84;5010670;28;20034;-84
2021/03/11 03:57:20;;;;;;;125.05;81.18;;;;;;;11.09;41.38;102198.66;5008910;28;20065;-86
2021/03/11 03:59:50;;;;;;;179.68;104.25;;;;;;;10.58;41.24;102069.22;5012290;28;20038;-86
2021/03/11 04:02:18;;;;;;;167.85;107.95;;;;;;;11.45;41.43;102234.34;5011199;28;20388;-85
2021/03/11 04:04:50;;;;;;;179.35;110.05;;;;;;;11.51;43.19;102211.28;5010307;28;20101;-85
2021/03/11 04:07:23;;;;;;;170.82;107.85;;;;;;;11.12;43.37;102160.47;5011762;28;20041;-84
2021/03/11 04:09:51;;;;;;;179.88;113.72;;;;;;;10.56;43.57;102063.91;5008755;28;20033;-88
2021/03/11 04:12:20;;;;;;;160.48;100.88;;;;;;;9.67;43.67;102025.47;5016675;28;20121;-91
2021/03/11 04:14:48;;;;;;;165.98;102.63;;;;;;;10.96;42.63;102218.06;5018736;28;20017;-90
2021/03/11 04:17:16;;;;;;;175.40;104.53;;;;;;;10.40;42.77;102139.94;5015159;28;20589;-84
2021/03/11 04:19:43;;;;;;;178.98;104.57;;;;;;;10.18;42.80;102068.22;5018180;28;20061;-85
2021/03/11 04:22:11;;;;;;;163.80;101.25;;;;;;;10.99;42.05;102178.84;5012496;28;20116;-85
2021/03/11 04:24:40;;;;;;;161.95;99.38;;;;;;;10.88;41.59;102126.88;5011060;28;20025;-83
2021/03/11 04:27:09;;;;;;;166.43;106.87;;;;;;;11.24;42.12;102197.53;5008428;28;20034;-84
2021/03/11 04:29:37;;;;;;;158.20;97.80;;;;;;;10.54;41.51;102104.81;5009357;28;20030;-85
2021/03/11 04:32:05;;;;;;;155.02;97.35;;;;;;;10.62;41.11;102089.84;5008950;28;20120;-84
2021/03/11 04:34:34;;;;;;;152.23;90.15;;;;;;;10.43;39.29;102095.25;5006160;28;20026;-86
2021/03/11 04:37:02;;;;;;;137.10;86.32;;;;;;;10.52;38.85;102104.19;5006824;28;20045;-86
2021/03/11 04:39:31;;;;;;;125.65;77.15;;;;;;;9.82;37.41;102016.97;5010186;28;20505;-85
2021/03/11 04:41:59;;;;;;;118.57;72.55;;;;;;;10.65;36.72;102125.44;5002590;28;20399;-84
2021/03/11 04:44:27;;;;;;;118.43;72.35;;;;;;;10.90;35.56;102160.75;5005929;28;20084;-87
2021/03/11 04:46:56;;;;;;;107.13;65.70;;;;;;;10.42;34.17;102088.00;5004580;28;20486;-87
2021/03/11 04:49:26;;;;;;;112.65;67.22;;;;;;;10.59;34.68;102132.72;5009160;28;20432;-86
2021/03/11 04:51:55;;;;;;;100.22;62.55;;;;;;;9.10;34.36;101927.19;5011043;28;20022;-87
2021/03/11 04:54:22;;;;;;;104.82;61.33;;;;;;;10.45;34.09;102170.63;5008846;28;20030;-85
2021/03/11 04:56:50;;;;;;;96.38;62.53;;;;;;;9.83;33.48;102002.06;5012844;28;20059;-87
2021/03/11 04:59:18;;;;;;;91.63;56.67;;;;;;;10.17;33.12;102038.81;5011284;28;20033;-86
2021/03/11 05:01:50;;;;;;;93.80;58.13;;;;;;;10.86;32.74;102145.66;5011623;28;20037;-87
2021/03/11 05:04:19;;;;;;;96.60;58.25;;;;;;;10.86;32.16;102165.03;5004693;28;20030;-87
2021/03/11 05:06:46;;;;;;;90.00;55.50;;;;;;;10.66;32.19;102105.00;5008248;28;20096;-86
2021/03/11 05:09:13;;;;;;;89.85;52.20;;;;;;;10.71;31.27;102091.34;5009957;28;20037;-87
2021/03/11 05:11:42;;;;;;;80.30;46.78;;;;;;;11.10;29.75;102157.91;5004809;28;20030;-86
2021/03/11 05:14:09;;;;;;;71.17;46.50;;;;;;;10.63;28.76;102028.72;4996586;28;20034;-87
2021/03/11 05:16:36;;;;;;;85.55;45.95;;;;;;;11.27;29.16;102133.31;5011256;28;20324;-88
2021/03/11 05:19:03;;;;;;;61.47;40.45;;;;;;;10.84;28.71;102042.47;5007945;28;20049;-87
2021/03/11 05:21:31;;;;;;;56.45;36.15;;;;;;;11.46;27.16;102122.31;5013739;28;20038;-84
2021/03/11 05:23:58;;;;;;;61.47;37.95;;;;;;;10.81;27.28;102043.75;5011749;28;20061;-86
2021/03/11 05:26:26;;;;;;;55.42;31.83;;;;;;;11.02;26.50;102128.53;5010171;28;20576;-86
2021/03/11 05:28:54;;;;;;;48.22;29.70;;;;;;;9.77;26.12;101939.28;5007753;28;20030;-87
2021/03/11 05:31:21;;;;;;;48.63;28.65;;;;;;;9.65;25.81;101944.63;5006420;28;20029;-87
2021/03/11 05:33:48;;;;;;;45.13;29.05;;;;;;;9.63;26.36;101968.91;5005679;28;20035;-87
2021/03/11 05:36:15;;;;;;;54.72;32.88;;;;;;;10.36;26.32;102039.00;5001063;28;20034;-87
2021/03/11 05:38:48;;;;;;;55.13;34.88;;;;;;;10.65;27.04;102129.06;5006190;28;20502;-86
2021/03/11 05:41:16;;;;;;;44.45;30.50;;;;;;;9.95;26.89;101966.28;5003484;28;20038;-88
2021/03/11 05:43:43;;;;;;;61.05;36.05;;;;;;;10.80;26.76;102078.94;5007210;28;20499;-87
2021/03/11 05:46:11;;;;;;;52.83;35.00;;;;;;;10.71;27.29;102041.50;5005429;28;20406;-86
2021/03/11 05:48:40;;;;;;;58.95;34.17;;;;;;;11.03;28.12;102110.84;5007431;28;20036;-86
2021/03/11 05:51:11;;;;;;;64.93;37.25;;;;;;;10.99;28.06;102112.31;5007987;28;20037;-86
2021/03/11 05:53:39;;;;;;;61.50;37.20;;;;;;;10.75;28.04;102041.91;5007400;28;20053;-86
2021/03/11 05:56:07;;;;;;;63.85;39.95;;;;;;;10.83;29.05;102083.22;5010783;28;20037;-84
2021/03/11 05:58:34;;;;;;;79.25;43.35;;;;;;;10.49;29.71;101997.47;5014614;28;20037;-86
2021/03/11 06:01:03;;;;;;;81.70;45.08;;;;;;;10.56;31.72;102044.50;5019211;28;20041;-85
2021/03/11 06:03:33;;;;;;;84.05;51.45;;;;;;;10.71;31.60;102013.78;5021969;28;20049;-86
2021/03/11 06:06:01;;;;;;;86.03;53.05;;;;;;;10.84;32.57;102045.25;5008241;28;20562;-85
2021/03/11 06:08:28;;;;;;;97.28;58.63;;;;;;;10.66;33.79;102071.75;5004093;28;20511;-86
2021/03/11 06:10:57;;;;;;;101.10;64.97;;;;;;;10.52;35.01;102110.56;5006391;28;20022;-85
2021/03/11 06:13:25;;;;;;;111.28;69.10;;;;;;;9.91;36.53;102003.72;5001292;28;20046;-87
2021/03/11 06:16:19;;;;;;;130.60;75.82;;;;;;;9.72;38.33;102012.72;5009628;28;20140;-88
2021/03/11 06:18:47;;;;;;;137.27;81.45;;;;;;;9.66;39.73;101991.44;5008705;28;20120;-85
2021/03/11 06:21:14;;;;;;;143.70;85.25;;;;;;;8.78;41.37;101865.34;5007787;28;20037;-86
2021/03/11 06:23:41;;;;;;;138.82;87.60;;;;;;;8.61;41.04;101805.00;4999961;28;20030;-87
2021/03/11 06:26:12;;;;;;;151.15;87.40;;;;;;;9.90;41.53;101989.06;5019361;28;20034;-86
2021/03/11 06:28:45;;;;;;;146.70;89.93;;;;;;;10.60;41.37;102090.09;5003009;28;20029;-87
2021/03/11 06:31:26;;;;;;;150.75;93.55;;;;;;;10.21;42.13;102081.63;5006263;28;20022;-87
2021/03/11 06:33:55;;;;;;;145.20;87.43;;;;;;;8.56;42.18;101827.72;5009632;28;20038;-87
2021/03/11 06:36:27;;;;;;;138.98;83.70;;;;;;;9.17;41.34;101911.47;5010608;28;20011;-86
2021/03/11 06:38:54;;;;;;;127.15;76.63;;;;;;;9.66;39.34;101972.09;5036036;28;20061;-86
2021/03/11 06:41:21;;;;;;;112.30;71.38;;;;;;;9.25;38.21;101898.50;5008498;28;20491;-86
2021/03/11 06:44:01;;;;;;;115.82;70.57;;;;;;;10.36;38.26;102086.06;5013374;28;20030;-85
2021/03/11 06:46:30;;;;;;;112.53;67.70;;;;;;;9.24;36.69;101883.00;5008498;28;20072;-86
2021/03/11 06:49:08;;;;;;;109.95;68.45;;;;;;;10.06;37.78;102009.91;4996160;28;20053;-87
2021/03/11 06:51:35;;;;;;;117.20;71.35;;;;;;;10.35;38.99;102056.69;5009131;28;20021;-84
2021/03/11 06:54:03;;;;;;;122.03;75.30;;;;;;;9.77;40.74;101969.72;5016502;28;20196;-86
2021/03/11 06:56:31;;;;;;;115.63;71.10;;;;;;;10.24;40.34;102055.44;5009189;28;20707;-86
2021/03/11 06:59:02;;;;;;;132.70;77.20;;;;;;;10.26;41.33;102037.53;5019342;28;20475;-86
2021/03/11 07:01:34;;;;;;;125.50;79.47;;;;;;;10.27;42.19;102019.88;5012397;28;20088;-85
2021/03/11 07:04:02;;;;;;;135.65;87.72;;;;;;;10.49;44.03;102090.75;5004809;28;20116;-87
2021/03/11 07:06:30;;;;;;;152.57;84.75;;;;;;;10.57;43.53;102079.44;5007057;28;20072;-86
2021/03/11 07:08:59;;;;;;;142.85;84.70;;;;;;;10.27;44.64;102041.13;5011719;28;20080;-85
2021/03/11 07:11:27;;;;;;;136.40;81.03;;;;;;;10.19;44.39;102044.16;5006865;28;20079;-86
2021/03/11 07:13:57;;;;;;;135.40;76.32;;;;;;;9.06;44.65;101920.41;5008836;28;20051;-86
2021/03/11 07:16:27;;;;;;;129.82;81.05;;;;;;;8.99;44.27;101953.53;5011945;28;20035;-88
2021/03/11 07:19:16;;;;;;;132.77;74.95;;;;;;;9.63;43.19;102085.88;5013570;28;20050;-85
2021/03/11 07:21:47;;;;;;;119.07;73.95;;;;;;;9.69;42.49;102081.44;5011504;28;20038;-86
2021/03/11 07:24:35;;;;;;;114.47;68.35;;;;;;;9.01;41.23;101934.00;5004583;28;20709;-87
2021/03/11 07:27:05;;;;;;;119.70;69.50;;;;;;;8.96;41.89;101925.47;5007396;28;20062;-87
2021/03/11 07:29:32;;;;;;;110.47;69.75;;;;;;;10.20;41.57;102068.84;5007247;28;20036;-85
2021/03/11 07:32:02;;;;;;;108.47;62.63;;;;;;;9.78;40.01;101988.00;5005801;28;20022;-86
2021/03/11 07:34:34;;;;;;;107.63;64.45;;;;;;;9.99;39.50;101985.00;5008189;28;20076;-86
2021/03/11 07:37:02;;;;;;;101.03;63.20;;;;;;;10.13;39.16;102052.25;5026143;28;20545;-86
2021/03/11 07:39:43;;;;;;;113.43;63.53;;;;;;;9.69;40.11;102015.88;5010998;28;20041;-86
2021/03/11 07:42:11;;;;;;;99.95;62.08;;;;;;;10.26;39.89;102051.38;5009971;28;20038;-86
2021/03/11 07:44:38;;;;;;;96.95;62.95;;;;;;;9.67;40.45;101982.06;5009789;28;20026;-85
2021/03/11 07:47:06;;;;;;;100.40;63.17;;;;;;;9.35;39.85;101901.72;5010676;28;20108;-86
2021/03/11 07:49:34;;;;;;;96.30;57.75;;;;;;;9.57;39.12;101904.25;5005031;28;20026;-86
2021/03/11 07:52:03;;;;;;;89.82;55.75;;;;;;;10.31;39.50;102041.56;5006030;28;20109;-87
2021/03/11 07:54:33;;;;;;;92.25;53.72;;;;;;;10.30;39.15;102003.88;5008611;28;20486;-87
2021/03/11 07:57:00;;;;;;;98.80;61.65;;;;;;;9.39;39.24;101849.63;5007707;28;20030;-85
2021/03/11 07:59:27;;;;;;;97.97;55.15;;;;;;;10.02;39.49;101980.97;5009396;28;20395;-87
2021/03/11 08:02:09;;;;;;;107.43;62.08;;;;;;;9.68;40.39;101956.13;5016581;28;20125;-86
2021/03/11 08:04:42;;;;;;;91.00;57.65;;;;;;;10.10;40.90;102040.78;5001089;28;20057;-86
2021/03/11 08:07:20;;;;;;;101.13;60.88;;;;;;;8.03;41.96;101765.81;5005911;28;20128;-87
2021/03/11 08:09:49;;;;;;;108.30;65.35;;;;;;;9.12;42.57;101938.03;5021463;28;20022;-86
2021/03/11 08:12:37;;;;;;;105.50;62.45;;;;;;;8.98;42.16;101915.09;5002799;28;20151;-86
2021/03/11 08:15:19;;;;;;;105.30;64.68;;;;;;;8.99;42.05;101948.00;5006907;28;20057;-85
2021/03/11 08:17:50;;;;;;;111.68;62.42;;;;;;;8.98;42.60;101968.41;5007294;28;20033;-86
2021/03/11 08:20:20;;;;;;;108.38;61.40;;;;;;;9.39;42.73;102018.22;5009257;28;20072;-85
2021/03/11 08:22:56;;;;;;;107.00;66.00;;;;;;;9.15;43.06;102012.25;5008176;28;20042;-86
2021/03/11 08:25:38;;;;;;;111.85;66.15;;;;;;;9.11;43.72;102009.06;5006156;28;20062;-85
2021/03/11 08:28:11;;;;;;;109.38;64.10;;;;;;;9.54;42.95;102004.19;5004661;28;20026;-86
2021/03/11 08:30:41;;;;;;;104.70;64.63;;;;;;;9.71;42.93;101999.09;5007637;28;20026;-86
2021/03/11 08:33:12;;;;;;;114.63;68.80;;;;;;;8.78;43.31;101881.94;5000708;28;20054;-85
2021/03/11 08:35:44;;;;;;;112.20;68.45;;;;;;;8.48;43.92;101836.16;4986237;28;20050;-86
2021/03/11 08:38:21;;;;;;;121.03;69.43;;;;;;;9.49;44.02;101991.00;5003221;28;20034;-85
2021/03/11 08:41:04;;;;;;;113.00;62.55;;;;;;;9.61;43.51;101988.44;4974766;28;242943;-86
2021/03/11 08:43:40;;;;;;;110.88;65.88;;;;;;;9.67;44.10;101989.50;4999585;28;20066;-85
2021/03/11 08:46:13;;;;;;;113.45;68.00;;;;;;;9.94;43.65;101998.63;5009821;28;20157;-85
2021/03/11 08:48:41;;;;;;;111.95;70.38;;;;;;;9.58;43.93;101988.88;5010111;28;20048;-87
2021/03/11 08:51:32;;;;;;;106.43;68.50;;;;;;;8.34;44.48;101816.81;5016759;28;20038;-84
2021/03/11 08:54:05;;;;;;;109.15;70.15;;;;;;;8.65;44.27;101866.16;5007360;28;20038;-84
2021/03/11 08:56:32;;;;;;;99.05;60.72;;;;;;;9.51;44.06;101985.28;5019298;28;20026;-86
2021/03/11 08:59:44;;;;;;;105.25;61.38;;;;;;;9.07;43.59;101930.41;5009665;28;20085;-84
2021/03/11 09:02:33;;;;;;;102.40;64.47;;;;;;;8.86;44.01;101890.84;4993363;28;20503;-86
2021/03/11 09:05:00;;;;;;;115.22;66.53;;;;;;;7.90;44.83;101785.09;5014681;28;20049;-85
2021/03/11 09:07:35;;;;;;;115.28;65.78;;;;;;;8.77;45.02;101911.44;5021408;28;20037;-85
2021/03/11 09:10:05;;;;;;;108.97;63.55;;;;;;;9.09;45.06;101931.03;5021661;28;20026;-84
2021/03/11 09:12:35;;;;;;;111.30;66.85;;;;;;;9.23;44.38;101973.34;5023734;28;20160;-86
2021/03/11 09:15:06;;;;;;;107.47;66.35;;;;;;;8.42;44.56;101831.47;5018852;28;20027;-84
2021/03/11 09:17:35;;;;;;;102.43;61.22;;;;;;;9.09;45.28;101975.22;5005398;28;20030;-84
2021/03/11 09:20:13;;;;;;;116.28;65.70;;;;;;;8.49;44.58;101865.47;5002438;28;20441;-84
2021/03/11 09:22:46;;;;;;;113.00;68.07;;;;;;;8.79;45.23;101908.47;5002829;28;20517;-85
2021/03/11 09:25:25;;;;;;;104.82;62.85;;;;;;;8.82;44.48;101919.97;5007114;28;20029;-85
2021/03/11 09:27:59;;;;;;;106.50;64.50;;;;;;;8.95;44.73;101932.06;5011267;28;20096;-88
2021/03/11 09:30:37;;;;;;;106.03;68.57;;;;;;;9.15;45.38;102002.03;5004292;28;20010;-84
2021/03/11 09:33:20;;;;;;;106.47;65.63;;;;;;;8.56;45.46;101885.69;5002788;28;20037;-86
2021/03/11 09:35:49;;;;;;;109.28;66.75;;;;;;;8.42;45.33;101864.59;5003767;28;20096;-84
2021/03/11 09:38:25;;;;;;;111.95;64.72;;;;;;;9.01;46.63;101972.66;5005853;28;20542;-85
2021/03/11 09:41:01;;;;;;;104.70;63.28;;;;;;;8.57;45.09;101901.19;4999660;28;20041;-83
2021/03/11 09:43:30;;;;;;;105.93;62.70;;;;;;;8.81;45.47;101945.00;5006072;28;20141;-84
2021/03/11 09:46:02;;;;;;;108.63;61.40;;;;;;;8.81;44.58;101956.91;4998551;28;20132;-82
2021/03/11 09:48:32;;;;;;;108.85;61.42;;;;;;;9.03;45.45;101990.75;5003165;28;20091;-88
2021/03/11 09:51:02;;;;;;;115.68;63.83;;;;;;;9.14;45.42;101993.94;4999650;28;20026;-88
2021/03/11 09:53:58;;;;;;;115.78;64.25;;;;;;;9.06;46.18;101991.38;5011770;28;20034;-87
2021/03/11 09:56:27;;;;;;;102.90;64.00;;;;;;;9.04;46.40;101994.38;5006616;28;20042;-85
2021/03/11 09:59:00;;;;;;;105.40;64.45;;;;;;;8.77;47.87;101983.22;5008788;28;20034;-85
2021/03/11 10:01:31;;;;;;;110.13;65.25;;;;;;;8.95;45.98;101995.59;4996797;28;20023;-83
2021/03/11 10:04:00;;;;;;;114.03;63.08;;;;;;;8.22;45.59;101893.00;5001787;28;20076;-87
2021/03/11 10:06:29;;;;;;;108.22;64.10;;;;;;;8.84;44.69;101956.50;5023902;28;20088;-86
2021/03/11 10:09:00;;;;;;;105.78;62.03;;;;;;;7.86;45.90;101819.66;4999587;28;20057;-85
2021/03/11 10:11:52;;;;;;;110.68;62.50;;;;;;;8.82;46.08;101988.13;5002194;28;20030;-85
2021/03/11 10:14:22;;;;;;;109.07;63.03;;;;;;;8.27;46.21;101917.22;5006963;28;20069;-84
2021/03/11 10:16:50;;;;;;;114.40;64.37;;;;;;;8.21;46.37;101897.66;5006170;28;20033;-84
2021/03/11 10:19:30;;;;;;;102.80;61.45;;;;;;;7.15;45.66;101709.50;5001808;28;20309;-86
2021/03/11 10:22:06;;;;;;;98.33;55.07;;;;;;;8.76;46.59;101981.53;5009654;28;20096;-94
2021/03/11 10:24:40;;;;;;;108.38;63.92;;;;;;;8.01;46.94;101853.44;5028860;28;20062;-93
2021/03/11 10:27:28;;;;;;;115.55;70.57;;;;;;;8.84;48.29;101973.06;5021596;28;20021;-91
2021/03/11 10:30:16;;;;;;;122.38;68.43;;;;;;;8.38;47.91;101946.94;5018097;28;20030;-90
2021/03/11 10:32:50;;;;;;;116.68;68.47;;;;;;;8.05;48.70;101901.63;5018469;28;20034;-93
2021/03/11 10:35:31;;;;;;;118.25;70.10;;;;;;;8.77;48.02;102008.09;5015656;28;20022;-91
2021/03/11 10:38:20;;;;;;;121.18;71.68;;;;;;;8.43;48.75;101998.81;5034760;28;20034;-91
2021/03/11 10:40:49;;;;;;;120.88;70.97;;;;;;;7.28;49.20;101838.19;5017388;28;20025;-90
2021/03/11 10:43:28;;;;;;;118.88;69.70;;;;;;;7.71;49.55;101980.53;5017944;28;20040;-92
2021/03/11 10:45:56;;;;;;;129.07;71.35;;;;;;;7.42;50.07;101943.84;5016905;28;20021;-91
2021/03/11 10:48:23;;;;;;;134.68;77.28;;;;;;;7.37;50.68;101940.84;5022909;28;20026;-92
2021/03/11 10:50:53;;;;;;;140.73;78.82;;;;;;;7.39;51.04;101913.94;5018613;28;20037;-91
2021/03/11 10:53:36;;;;;;;135.77;74.65;;;;;;;8.02;51.18;101998.56;5021857;28;20145;-91
2021/03/11 10:56:07;;;;;;;135.82;73.78;;;;;;;7.78;50.97;101934.56;5013667;28;20026;-87
2021/03/11 10:58:34;;;;;;;125.22;75.30;;;;;;;7.79;50.93;101922.47;5014438;28;20030;-89
2021/03/11 11:01:17;;;;;;;122.45;75.90;;;;;;;7.36;51.64;101889.53;5017264;28;20034;-89
2021/03/11 11:03:45;;;;;;;133.95;79.32;;;;;;;6.36;53.22;101761.84;5024756;28;20026;-89
2021/03/11 11:06:13;;;;;;;143.73;79.07;;;;;;;6.94;53.65;101884.75;5018238;28;20087;-89
2021/03/11 11:08:44;;;;;;;134.57;75.75;;;;;;;7.28;53.15;101908.94;5008338;28;20057;-86
2021/03/11 11:11:12;;;;;;;135.35;79.57;;;;;;;6.92;52.49;101818.03;5007343;28;20033;-86
2021/03/11 11:13:39;;;;;;;141.82;81.18;;;;;;;6.57;52.49;101779.41;5008083;28;20038;-86
2021/03/11 11:16:07;;;;;;;134.45;77.32;;;;;;;7.56;52.86;101899.84;5008996;28;20037;-87
2021/03/11 11:18:34;;;;;;;138.75;80.35;;;;;;;8.03;53.64;102000.25;5007612;28;20081;-86
2021/03/11 11:21:01;;;;;;;140.90;83.80;;;;;;;7.47;53.58;101896.38;5007835;28;20042;-87
2021/03/11 11:23:28;;;;;;;140.05;83.22;;;;;;;7.37;53.47;101886.56;5008369;28;20062;-86